createdAt,value
2023-03-17T00:00:08.060Z,22.37
2023-03-17T00:04:08.198Z,22.37
2023-03-17T00:08:08.349Z,22.37
2023-03-17T00:12:08.506Z,22.37
2023-03-17T00:16:08.685Z,22.36
2023-03-17T00:20:08.794Z,22.35
2023-03-17T00:24:08.937Z,22.35
2023-03-17T00:28:09.067Z,22.35
2023-03-17T00:32:09.233Z,22.35
2023-03-17T00:36:09.396Z,22.33
2023-03-17T00:40:09.570Z,22.33
2023-03-17T00:44:09.699Z,22.35
2023-03-17T00:48:09.895Z,22.36
2023-03-17T00:52:09.984Z,22.33
2023-03-17T00:56:10.159Z,22.33
2023-03-17T01:00:10.327Z,22.32
2023-03-17T01:04:10.475Z,22.29
2023-03-17T01:08:10.653Z,22.35
2023-03-17T01:12:10.828Z,22.32
2023-03-17T01:18:20.956Z,22.32
2023-03-17T01:22:20.885Z,22.32
2023-03-17T01:26:20.822Z,22.32
2023-03-17T01:30:20.786Z,22.32
2023-03-17T01:34:20.773Z,22.30
2023-03-17T01:38:20.724Z,22.32
2023-03-17T01:42:20.715Z,22.30
2023-03-17T01:46:20.716Z,22.30
2023-03-17T01:50:21.110Z,22.27
2023-03-17T01:54:20.618Z,22.27
2023-03-17T01:58:20.585Z,22.29
2023-03-17T02:02:20.582Z,22.27
2023-03-17T02:06:20.702Z,22.27
2023-03-17T02:10:20.853Z,22.27
2023-03-17T02:14:20.975Z,22.27
2023-03-17T02:18:21.116Z,22.26
2023-03-17T02:22:21.242Z,22.29
2023-03-17T02:26:21.358Z,22.27
2023-03-17T02:30:21.480Z,22.27
2023-03-17T02:34:21.609Z,22.27
2023-03-17T02:38:21.732Z,22.27
2023-03-17T02:42:21.862Z,22.26
2023-03-17T02:46:22.030Z,22.27
2023-03-17T02:50:22.141Z,22.26
2023-03-17T02:54:22.234Z,22.26
2023-03-17T02:58:22.384Z,22.24
2023-03-17T03:02:22.549Z,22.26
2023-03-17T03:06:22.628Z,22.23
2023-03-17T03:10:22.784Z,22.23
2023-03-17T03:14:22.916Z,22.23
2023-03-17T03:18:23.039Z,22.23
2023-03-17T03:22:23.172Z,22.21
2023-03-17T03:26:23.296Z,22.26
2023-03-17T03:30:23.448Z,22.21
2023-03-17T03:34:23.587Z,22.23
2023-03-17T03:38:23.711Z,22.23
2023-03-17T03:42:23.834Z,22.23
2023-03-17T03:46:24.008Z,22.24
2023-03-17T03:50:24.100Z,22.24
2023-03-17T03:54:24.264Z,22.24
2023-03-17T03:58:24.346Z,22.23
2023-03-17T04:02:24.539Z,22.20
2023-03-17T04:06:24.638Z,22.23
2023-03-17T04:10:24.714Z,22.23
2023-03-17T04:14:24.845Z,22.23
2023-03-17T04:18:24.973Z,22.20
2023-03-17T04:22:25.124Z,22.20
2023-03-17T04:26:25.213Z,22.20
2023-03-17T04:30:25.401Z,22.19
2023-03-17T04:34:25.497Z,22.19
2023-03-17T04:38:25.622Z,22.19
2023-03-17T04:42:25.738Z,22.19
2023-03-17T04:46:25.903Z,22.19
2023-03-17T04:50:26.012Z,22.19
2023-03-17T04:54:26.149Z,22.20
2023-03-17T04:58:30.874Z,22.20
2023-03-17T05:02:27.272Z,22.17
2023-03-17T05:06:26.231Z,22.19
2023-03-17T05:10:26.159Z,22.17
2023-03-17T05:14:26.299Z,22.19
2023-03-17T05:18:26.424Z,22.20
2023-03-17T05:22:26.616Z,22.17
2023-03-17T05:26:26.712Z,22.19
2023-03-17T05:30:26.848Z,22.16
2023-03-17T05:34:27.004Z,22.17
2023-03-17T05:38:27.122Z,22.13
2023-03-17T05:42:27.285Z,22.16
2023-03-17T05:46:27.549Z,22.17
2023-03-17T05:50:27.829Z,22.20
2023-03-17T05:54:27.638Z,22.19
2023-03-17T05:58:27.782Z,22.23
2023-03-17T06:02:27.962Z,22.23
2023-03-17T06:06:28.079Z,22.27
2023-03-17T06:10:28.237Z,22.30
2023-03-17T06:14:28.361Z,22.30
2023-03-17T06:18:28.482Z,22.29
2023-03-17T06:22:28.593Z,22.35
2023-03-17T06:26:28.714Z,22.37
2023-03-17T06:30:28.826Z,22.39
2023-03-17T06:34:28.925Z,22.36
2023-03-17T06:38:29.257Z,22.36
2023-03-17T06:42:29.248Z,22.36
2023-03-17T06:46:29.337Z,22.37
2023-03-17T06:50:29.761Z,22.35
2023-03-17T06:54:29.735Z,22.36
2023-03-17T06:58:29.732Z,22.37
2023-03-17T07:02:30.241Z,22.36
2023-03-17T07:06:29.861Z,22.37
2023-03-17T07:10:30.256Z,22.36
2023-03-17T07:14:30.077Z,22.37
2023-03-17T07:18:30.212Z,22.35
2023-03-17T07:22:30.311Z,22.37
2023-03-17T07:26:30.770Z,21.88
2023-03-17T07:30:30.622Z,20.56
2023-03-17T07:34:30.765Z,19.57
2023-03-17T07:38:30.854Z,19.53
2023-03-17T07:42:30.985Z,20.04
2023-03-17T07:46:31.391Z,20.52
2023-03-17T07:50:31.253Z,20.94
2023-03-17T07:54:31.764Z,21.30
2023-03-17T07:58:31.489Z,21.58
2023-03-17T08:02:31.884Z,21.85
2023-03-17T08:06:31.844Z,21.96
2023-03-17T08:10:32.675Z,22.10
2023-03-17T08:14:31.866Z,22.23
2023-03-17T08:18:31.809Z,22.30
2023-03-17T08:22:32.268Z,22.40
2023-03-17T08:26:31.832Z,22.51
2023-03-17T08:30:33.767Z,22.51
2023-03-17T08:34:31.835Z,22.57
2023-03-17T08:38:31.808Z,22.66
2023-03-17T08:42:31.771Z,22.77
2023-03-17T08:46:31.841Z,22.84
2023-03-17T08:50:32.065Z,22.94
2023-03-17T08:54:31.642Z,22.90
2023-03-17T08:58:31.787Z,22.84
2023-03-17T09:02:31.658Z,22.84
2023-03-17T09:06:31.562Z,22.86
2023-03-17T09:10:31.699Z,22.87
2023-03-17T09:14:40.082Z,22.90
2023-03-17T09:18:32.512Z,22.87
2023-03-17T09:22:31.463Z,22.90
2023-03-17T09:26:31.603Z,22.87
2023-03-17T09:30:32.713Z,22.81
2023-03-17T09:34:31.992Z,22.83
2023-03-17T09:38:32.275Z,22.91
2023-03-17T09:42:32.794Z,22.94
2023-03-17T09:46:32.557Z,22.87
2023-03-17T09:50:33.236Z,22.91
2023-03-17T09:54:32.819Z,22.86
2023-03-17T09:58:32.807Z,22.84
2023-03-17T10:02:32.376Z,22.72
2023-03-17T10:06:32.351Z,22.64
2023-03-17T10:10:32.766Z,21.99
2023-03-17T10:14:32.261Z,21.41
2023-03-17T10:18:32.250Z,20.97
2023-03-17T10:22:32.218Z,20.77
2023-03-17T10:26:32.308Z,20.60
2023-03-17T10:30:32.787Z,20.53
2023-03-17T10:34:32.838Z,20.43
2023-03-17T10:38:32.652Z,20.62
2023-03-17T10:42:33.296Z,20.90
2023-03-17T10:46:33.361Z,21.13
2023-03-17T10:50:33.778Z,21.34
2023-03-17T10:54:33.027Z,21.44
2023-03-17T10:58:33.094Z,21.69
2023-03-17T11:02:33.072Z,21.85
2023-03-17T11:06:33.310Z,21.97
2023-03-17T11:10:33.188Z,22.29
2023-03-17T11:14:32.950Z,22.37
2023-03-17T11:18:33.379Z,22.43
2023-03-17T11:22:32.885Z,22.54
2023-03-17T11:26:32.949Z,22.58
2023-03-17T11:30:33.269Z,22.64
2023-03-17T11:34:32.837Z,22.68
2023-03-17T11:38:32.834Z,22.79
2023-03-17T11:42:32.847Z,22.86
2023-03-17T11:46:32.689Z,22.87
2023-03-17T11:50:33.195Z,22.87
2023-03-17T11:54:32.839Z,22.93
2023-03-17T11:58:32.591Z,23.02
2023-03-17T12:02:32.610Z,23.11
2023-03-17T12:06:32.520Z,22.99
2023-03-17T12:10:32.893Z,22.98
2023-03-17T12:14:32.426Z,22.98
2023-03-17T12:18:32.450Z,22.98
2023-03-17T12:22:32.898Z,22.98
2023-03-17T12:26:33.336Z,23.05
2023-03-17T12:30:33.561Z,23.04
2023-03-17T12:34:33.342Z,23.04
2023-03-17T12:38:33.397Z,23.07
2023-03-17T12:42:33.422Z,23.07
2023-03-17T12:46:33.387Z,23.02
2023-03-17T12:50:33.322Z,22.90
2023-03-17T12:54:33.348Z,22.79
2023-03-17T12:58:33.220Z,22.79
2023-03-17T13:02:33.182Z,22.75
2023-03-17T13:06:33.133Z,22.84
2023-03-17T13:10:33.114Z,22.90
2023-03-17T13:14:33.320Z,23.01
2023-03-17T13:18:33.195Z,23.19
2023-03-17T13:22:33.050Z,23.32
2023-03-17T13:26:33.145Z,23.41
2023-03-17T13:30:33.379Z,23.38
2023-03-17T13:34:33.335Z,23.35
2023-03-17T13:38:33.408Z,23.41
2023-03-17T13:42:33.507Z,23.45
2023-03-17T13:46:33.613Z,23.45
2023-03-17T13:50:33.667Z,23.52
2023-03-17T13:54:33.661Z,23.52
2023-03-17T13:58:33.562Z,23.59
2023-03-17T14:02:33.614Z,23.60
2023-03-17T14:06:33.642Z,23.68
2023-03-17T14:10:33.655Z,23.69
2023-03-17T14:14:33.734Z,23.72
2023-03-17T14:18:33.703Z,23.77
2023-03-17T14:22:33.658Z,23.83
2023-03-17T14:26:33.641Z,23.81
2023-03-17T14:30:33.622Z,23.87
2023-03-17T14:34:33.613Z,23.86
2023-03-17T14:38:33.615Z,23.91
2023-03-17T14:42:33.658Z,23.97
2023-03-17T14:46:33.755Z,23.96
2023-03-17T14:50:33.887Z,24.01
2023-03-17T14:54:33.933Z,24.07
2023-03-17T14:58:33.824Z,24.16
2023-03-17T15:02:33.847Z,24.24
2023-03-17T15:06:35.194Z,24.34
2023-03-17T15:10:33.994Z,24.38
2023-03-17T15:14:33.695Z,25.22
2023-03-17T15:18:33.634Z,26.79
2023-03-17T15:22:33.635Z,27.61
2023-03-17T15:26:33.553Z,28.46
2023-03-17T15:30:46.277Z,28.79
2023-03-17T15:34:34.558Z,28.46
2023-03-17T15:38:33.481Z,27.53
2023-03-17T15:42:33.422Z,26.54
2023-03-17T15:46:33.712Z,25.84
2023-03-17T15:50:34.074Z,25.25
2023-03-17T15:54:33.869Z,24.78
2023-03-17T15:58:33.825Z,24.47
2023-03-17T16:02:33.782Z,24.27
2023-03-17T16:06:33.740Z,24.13
2023-03-17T16:10:34.009Z,23.99
2023-03-17T16:14:33.674Z,23.86
2023-03-17T16:18:33.665Z,23.73
2023-03-17T16:22:33.627Z,23.63
2023-03-17T16:26:33.603Z,23.53
2023-03-17T16:30:34.073Z,23.48
2023-03-17T16:34:33.500Z,23.44
2023-03-17T16:38:33.490Z,23.37
2023-03-17T16:42:33.445Z,23.32
2023-03-17T16:46:35.188Z,23.29
2023-03-17T16:50:33.814Z,23.25
2023-03-17T16:54:33.348Z,23.25
2023-03-17T16:58:33.458Z,23.19
2023-03-17T17:02:33.609Z,23.15
2023-03-17T17:06:33.765Z,23.17
2023-03-17T17:10:33.934Z,23.14
2023-03-17T17:14:34.094Z,23.12
2023-03-17T17:18:36.503Z,23.12
2023-03-17T17:22:34.225Z,23.08
2023-03-17T17:26:34.199Z,23.07
2023-03-17T17:30:34.448Z,23.02
2023-03-17T17:34:34.141Z,23.04
2023-03-17T17:38:34.120Z,22.99
2023-03-17T17:42:34.062Z,23.01
2023-03-17T17:46:34.087Z,23.01
2023-03-17T17:50:34.228Z,22.98
2023-03-17T17:54:34.181Z,22.98
2023-03-17T17:58:34.034Z,22.97
2023-03-17T18:02:34.023Z,22.97
2023-03-17T18:06:33.996Z,22.94
2023-03-17T18:10:34.531Z,22.93
2023-03-17T18:14:33.925Z,22.93
2023-03-17T18:18:33.871Z,22.90
2023-03-17T18:22:33.835Z,22.90
2023-03-17T18:26:33.841Z,22.88
2023-03-17T18:30:34.203Z,22.90
2023-03-17T18:34:33.813Z,22.90
2023-03-17T18:38:33.758Z,22.90
2023-03-17T18:42:33.774Z,22.86
2023-03-17T18:46:33.769Z,22.84
2023-03-17T18:50:33.919Z,22.87
2023-03-17T18:54:33.624Z,22.86
2023-03-17T18:58:33.591Z,22.83
2023-03-17T19:02:33.536Z,22.84
2023-03-17T19:06:33.511Z,22.86
2023-03-17T19:10:33.919Z,22.84
2023-03-17T19:14:33.590Z,22.83
2023-03-17T19:18:33.570Z,22.79
2023-03-17T19:22:33.519Z,22.81
2023-03-17T19:26:33.482Z,22.79
2023-03-17T19:30:33.852Z,22.81
2023-03-17T19:34:33.408Z,22.83
2023-03-17T19:38:33.372Z,22.81
2023-03-17T19:42:33.336Z,22.81
2023-03-17T19:46:33.324Z,22.78
2023-03-17T19:50:33.655Z,22.78
2023-03-17T19:54:33.463Z,22.75
2023-03-17T19:58:33.646Z,22.77
2023-03-17T20:02:33.854Z,22.77
2023-03-17T20:06:33.992Z,22.77
2023-03-17T20:10:34.162Z,22.79
2023-03-17T20:14:34.339Z,22.78
2023-03-17T20:18:34.513Z,22.74
2023-03-17T20:22:34.688Z,22.77
2023-03-17T20:26:34.803Z,22.78
2023-03-17T20:30:34.969Z,22.78
2023-03-17T20:34:35.047Z,22.74
2023-03-17T20:38:35.229Z,22.77
2023-03-17T20:42:35.429Z,22.78
2023-03-17T20:46:35.597Z,22.77
2023-03-17T20:50:35.720Z,22.75
2023-03-17T20:54:35.872Z,22.75
2023-03-17T20:58:36.019Z,22.75
2023-03-17T21:02:36.234Z,22.74
2023-03-17T21:06:36.373Z,22.74
2023-03-17T21:10:36.474Z,22.75
2023-03-17T21:14:36.549Z,22.75
2023-03-17T21:18:36.589Z,22.74
2023-03-17T21:22:36.690Z,22.68
2023-03-17T21:26:36.807Z,22.72
2023-03-17T21:30:36.904Z,22.71
2023-03-17T21:34:36.988Z,22.72
2023-03-17T21:38:37.080Z,22.70
2023-03-17T21:42:37.158Z,22.71
2023-03-17T21:46:37.258Z,22.72
2023-03-17T21:50:37.279Z,22.70
2023-03-17T21:54:37.362Z,22.71
2023-03-17T21:58:37.392Z,22.71
2023-03-17T22:02:37.407Z,22.70
2023-03-17T22:06:37.430Z,22.71
2023-03-17T22:10:37.378Z,22.68
2023-03-17T22:14:37.468Z,22.70
2023-03-17T22:18:37.420Z,22.64
2023-03-17T22:22:37.453Z,22.64
2023-03-17T22:26:37.396Z,22.67
2023-03-17T22:30:37.438Z,22.66
2023-03-17T22:34:37.436Z,22.67
2023-03-17T22:38:37.470Z,22.67
2023-03-17T22:42:37.508Z,22.64
2023-03-17T22:46:37.513Z,22.66
2023-03-17T22:50:37.535Z,22.67
2023-03-17T22:54:37.520Z,22.67
2023-03-17T22:58:37.495Z,22.66
2023-03-17T23:02:37.513Z,22.68
2023-03-17T23:06:37.541Z,22.67
2023-03-17T23:10:37.564Z,22.68
2023-03-17T23:14:37.593Z,22.66
2023-03-17T23:18:37.613Z,22.66
2023-03-17T23:22:37.660Z,22.67
2023-03-17T23:26:37.721Z,22.64
2023-03-17T23:30:37.804Z,22.63
2023-03-17T23:34:37.767Z,22.66
2023-03-17T23:38:37.749Z,22.67
2023-03-17T23:42:37.774Z,22.63
2023-03-17T23:46:37.765Z,22.66
2023-03-17T23:50:37.727Z,22.66
2023-03-17T23:54:37.735Z,22.66
2023-03-17T23:58:37.720Z,22.66
